createdAt,value
2022-08-26T00:00:55.000Z,155
2022-08-26T00:02:10.000Z,154
2022-08-26T00:03:26.000Z,154
2022-08-26T00:04:43.000Z,154
2022-08-26T00:05:59.000Z,152
2022-08-26T00:07:14.000Z,151
2022-08-26T00:08:30.000Z,153
2022-08-26T00:09:47.000Z,154
2022-08-26T00:11:03.000Z,153
2022-08-26T00:12:19.000Z,154
2022-08-26T00:13:35.000Z,152
2022-08-26T00:14:52.000Z,153
2022-08-26T00:16:08.000Z,155
2022-08-26T00:17:24.000Z,152
2022-08-26T00:18:40.000Z,154
2022-08-26T00:19:56.000Z,155
2022-08-26T00:21:13.000Z,153
2022-08-26T00:22:29.000Z,155
2022-08-26T00:23:44.000Z,153
2022-08-26T00:25:00.000Z,153
2022-08-26T00:26:17.000Z,155
2022-08-26T00:27:33.000Z,152
2022-08-26T00:28:49.000Z,155
2022-08-26T00:30:05.000Z,153
2022-08-26T00:31:22.000Z,155
2022-08-26T00:32:38.000Z,152
2022-08-26T00:33:54.000Z,155
2022-08-26T00:35:10.000Z,153
2022-08-26T00:36:27.000Z,154
2022-08-26T00:37:43.000Z,154
2022-08-26T00:38:59.000Z,153
2022-08-26T00:40:14.000Z,154
2022-08-26T00:41:30.000Z,154
2022-08-26T00:42:46.000Z,155
2022-08-26T00:44:02.000Z,154
2022-08-26T00:45:18.000Z,154
2022-08-26T00:46:34.000Z,154
2022-08-26T00:47:51.000Z,155
2022-08-26T00:49:07.000Z,153
2022-08-26T00:50:22.000Z,153
2022-08-26T00:51:37.000Z,153
2022-08-26T00:52:54.000Z,153
2022-08-26T00:54:10.000Z,153
2022-08-26T00:55:26.000Z,154
2022-08-26T00:56:42.000Z,153
2022-08-26T00:57:59.000Z,153
2022-08-26T00:59:15.000Z,152
2022-08-26T01:00:31.000Z,152
2022-08-26T01:01:47.000Z,156
2022-08-26T01:03:04.000Z,155
2022-08-26T01:04:20.000Z,154
2022-08-26T01:05:36.000Z,154
2022-08-26T01:06:52.000Z,154
2022-08-26T01:08:07.000Z,153
2022-08-26T01:09:24.000Z,153
2022-08-26T01:10:40.000Z,154
2022-08-26T01:11:56.000Z,154
2022-08-26T01:13:12.000Z,155
2022-08-26T01:14:29.000Z,155
2022-08-26T01:15:45.000Z,154
2022-08-26T01:17:00.000Z,153
2022-08-26T01:18:15.000Z,153
2022-08-26T01:19:31.000Z,153
2022-08-26T01:20:47.000Z,153
2022-08-26T01:22:03.000Z,153
2022-08-26T01:23:18.000Z,152
2022-08-26T01:24:35.000Z,154
2022-08-26T01:25:51.000Z,156
2022-08-26T01:27:07.000Z,154
2022-08-26T01:28:23.000Z,154
2022-08-26T01:29:40.000Z,155
2022-08-26T01:30:56.000Z,157
2022-08-26T01:32:12.000Z,156
2022-08-26T01:33:28.000Z,156
2022-08-26T01:34:44.000Z,157
2022-08-26T01:36:01.000Z,157
2022-08-26T01:37:17.000Z,158
2022-08-26T01:38:33.000Z,157
2022-08-26T01:39:48.000Z,156
2022-08-26T01:41:05.000Z,156
2022-08-26T01:42:21.000Z,156
2022-08-26T01:43:37.000Z,155
2022-08-26T01:44:53.000Z,158
2022-08-26T01:46:09.000Z,157
2022-08-26T01:47:24.000Z,157
2022-08-26T01:48:40.000Z,157
2022-08-26T01:49:56.000Z,156
2022-08-26T01:51:13.000Z,157
2022-08-26T01:52:29.000Z,156
2022-08-26T01:53:45.000Z,157
2022-08-26T01:55:00.000Z,157
2022-08-26T01:56:16.000Z,157
2022-08-26T01:57:32.000Z,155
2022-08-26T01:58:48.000Z,154
2022-08-26T02:00:04.000Z,154
2022-08-26T02:01:20.000Z,156
2022-08-26T02:02:37.000Z,157
2022-08-26T02:03:53.000Z,156
2022-08-26T02:05:09.000Z,156
2022-08-26T02:06:25.000Z,155
2022-08-26T02:07:42.000Z,156
2022-08-26T02:08:58.000Z,155
2022-08-26T02:10:14.000Z,154
2022-08-26T02:11:30.000Z,154
2022-08-26T02:12:46.000Z,155
2022-08-26T02:14:02.000Z,155
2022-08-26T02:15:18.000Z,155
2022-08-26T02:16:34.000Z,155
2022-08-26T02:17:51.000Z,156
2022-08-26T02:19:07.000Z,155
2022-08-26T02:20:23.000Z,153
2022-08-26T02:21:38.000Z,155
2022-08-26T02:22:54.000Z,153
2022-08-26T02:24:10.000Z,153
2022-08-26T02:25:25.000Z,153
2022-08-26T02:26:40.000Z,156
2022-08-26T02:27:56.000Z,155
2022-08-26T02:29:13.000Z,154
2022-08-26T02:30:29.000Z,155
2022-08-26T02:31:45.000Z,156
2022-08-26T02:33:01.000Z,155
2022-08-26T02:34:18.000Z,152
2022-08-26T02:35:34.000Z,154
2022-08-26T02:36:50.000Z,150
2022-08-26T02:38:06.000Z,154
2022-08-26T02:39:23.000Z,155
2022-08-26T02:40:39.000Z,154
2022-08-26T02:41:55.000Z,153
2022-08-26T02:43:10.000Z,154
2022-08-26T02:44:27.000Z,152
2022-08-26T02:45:43.000Z,155
2022-08-26T02:46:59.000Z,154
2022-08-26T02:48:15.000Z,156
2022-08-26T02:49:31.000Z,154
2022-08-26T02:50:48.000Z,153
2022-08-26T02:52:03.000Z,153
2022-08-26T02:53:18.000Z,153
2022-08-26T02:54:34.000Z,155
2022-08-26T02:55:50.000Z,154
2022-08-26T02:57:06.000Z,154
2022-08-26T02:58:21.000Z,154
2022-08-26T02:59:37.000Z,153
2022-08-26T03:00:54.000Z,154
2022-08-26T03:02:10.000Z,155
2022-08-26T03:03:26.000Z,153
2022-08-26T03:04:42.000Z,155
2022-08-26T03:05:59.000Z,153
2022-08-26T03:07:15.000Z,153
2022-08-26T03:08:31.000Z,156
2022-08-26T03:09:47.000Z,153
2022-08-26T03:11:04.000Z,156
2022-08-26T03:12:20.000Z,155
2022-08-26T03:13:36.000Z,154
2022-08-26T03:14:51.000Z,154
2022-08-26T03:16:07.000Z,155
2022-08-26T03:17:24.000Z,154
2022-08-26T03:18:40.000Z,155
2022-08-26T03:19:56.000Z,156
2022-08-26T03:21:12.000Z,155
2022-08-26T03:22:28.000Z,152
2022-08-26T03:23:43.000Z,150
2022-08-26T03:24:58.000Z,156
2022-08-26T03:26:13.000Z,155
2022-08-26T03:27:30.000Z,155
2022-08-26T03:28:46.000Z,153
2022-08-26T03:30:02.000Z,154
2022-08-26T03:31:18.000Z,154
2022-08-26T03:32:35.000Z,151
2022-08-26T03:33:51.000Z,154
2022-08-26T03:35:07.000Z,154
2022-08-26T03:36:23.000Z,155
2022-08-26T03:37:40.000Z,152
2022-08-26T03:38:56.000Z,154
2022-08-26T03:40:12.000Z,155
2022-08-26T03:41:28.000Z,155
2022-08-26T03:42:44.000Z,152
2022-08-26T03:44:00.000Z,153
2022-08-26T03:45:16.000Z,150
2022-08-26T03:46:32.000Z,152
2022-08-26T03:47:48.000Z,152
2022-08-26T03:49:05.000Z,153
2022-08-26T03:50:21.000Z,155
2022-08-26T03:51:36.000Z,154
2022-08-26T03:52:51.000Z,152
2022-08-26T03:54:08.000Z,153
2022-08-26T03:55:24.000Z,155
2022-08-26T03:56:40.000Z,156
2022-08-26T03:57:56.000Z,154
2022-08-26T03:59:13.000Z,157
2022-08-26T04:00:29.000Z,160
2022-08-26T04:01:45.000Z,157
2022-08-26T04:03:01.000Z,161
2022-08-26T04:04:18.000Z,161
2022-08-26T04:05:34.000Z,166
2022-08-26T04:06:50.000Z,169
2022-08-26T04:08:06.000Z,169
2022-08-26T04:09:21.000Z,172
2022-08-26T04:10:38.000Z,139
2022-08-26T04:11:54.000Z,17
2022-08-26T04:13:10.000Z,17
2022-08-26T04:14:26.000Z,22
2022-08-26T04:15:43.000Z,27
2022-08-26T04:16:59.000Z,35
2022-08-26T04:18:14.000Z,44
2022-08-26T04:19:29.000Z,50
2022-08-26T04:20:45.000Z,60
2022-08-26T04:22:00.000Z,68
2022-08-26T04:23:16.000Z,82
2022-08-26T04:24:32.000Z,95
2022-08-26T04:25:49.000Z,112
2022-08-26T04:27:05.000Z,134
2022-08-26T04:28:21.000Z,154
2022-08-26T04:29:37.000Z,176
2022-08-26T04:30:54.000Z,198
2022-08-26T04:32:10.000Z,224
2022-08-26T04:33:26.000Z,246
2022-08-26T04:34:42.000Z,271
2022-08-26T04:35:58.000Z,292
2022-08-26T04:37:15.000Z,318
2022-08-26T04:38:30.000Z,340
2022-08-26T04:39:46.000Z,373
2022-08-26T04:41:02.000Z,401
2022-08-26T04:42:19.000Z,431
2022-08-26T04:43:35.000Z,457
2022-08-26T04:44:51.000Z,480
2022-08-26T04:46:07.000Z,505
2022-08-26T04:47:23.000Z,537
2022-08-26T04:48:38.000Z,581
2022-08-26T04:49:53.000Z,631
2022-08-26T04:51:08.000Z,671
2022-08-26T04:52:25.000Z,701
2022-08-26T04:53:41.000Z,730
2022-08-26T04:54:57.000Z,758
2022-08-26T04:56:13.000Z,783
2022-08-26T04:57:30.000Z,806
2022-08-26T04:58:46.000Z,838
2022-08-26T05:00:02.000Z,862
2022-08-26T05:01:18.000Z,886
2022-08-26T05:02:35.000Z,929
2022-08-26T05:03:51.000Z,988
2022-08-26T05:05:07.000Z,1046
2022-08-26T05:06:23.000Z,1094
2022-08-26T05:07:38.000Z,1137
2022-08-26T05:08:55.000Z,1206
2022-08-26T05:10:11.000Z,1296
2022-08-26T05:11:27.000Z,1385
2022-08-26T05:12:43.000Z,1466
2022-08-26T05:14:00.000Z,1539
2022-08-26T05:15:16.000Z,1570
2022-08-26T05:16:31.000Z,1595
2022-08-26T05:17:46.000Z,1630
2022-08-26T05:19:02.000Z,1691
2022-08-26T05:20:17.000Z,1764
2022-08-26T05:21:33.000Z,1822
2022-08-26T05:22:49.000Z,1889
2022-08-26T05:24:06.000Z,1981
2022-08-26T05:25:22.000Z,2087
2022-08-26T05:26:38.000Z,2212
2022-08-26T05:27:54.000Z,2325
2022-08-26T05:29:11.000Z,2414
2022-08-26T05:30:27.000Z,2434
2022-08-26T05:31:43.000Z,2418
2022-08-26T05:32:59.000Z,2661
2022-08-26T05:34:15.000Z,2622
2022-08-26T05:35:32.000Z,2336
2022-08-26T05:36:47.000Z,2741
2022-08-26T05:38:03.000Z,2594
2022-08-26T05:39:19.000Z,2285
2022-08-26T05:40:36.000Z,2613
2022-08-26T05:41:52.000Z,2704
2022-08-26T05:43:08.000Z,2708
2022-08-26T05:44:24.000Z,2453
2022-08-26T05:45:40.000Z,2238
2022-08-26T05:46:55.000Z,2457
2022-08-26T05:48:11.000Z,2466
2022-08-26T05:49:26.000Z,2434
2022-08-26T05:50:42.000Z,2433
2022-08-26T05:51:58.000Z,2720
2022-08-26T05:53:14.000Z,2388
2022-08-26T05:54:30.000Z,2656
2022-08-26T05:55:47.000Z,2070
2022-08-26T05:57:03.000Z,2563
2022-08-26T05:58:19.000Z,2584
2022-08-26T05:59:35.000Z,2553
2022-08-26T06:00:51.000Z,2417
2022-08-26T06:02:08.000Z,2658
2022-08-26T06:03:24.000Z,2268
2022-08-26T06:04:40.000Z,2555
2022-08-26T06:05:56.000Z,2593
2022-08-26T06:07:13.000Z,2248
2022-08-26T06:08:29.000Z,2988
2022-08-26T06:09:44.000Z,2626
2022-08-26T06:11:00.000Z,2985
2022-08-26T06:12:17.000Z,2837
2022-08-26T06:13:33.000Z,2501
2022-08-26T06:14:49.000Z,2876
2022-08-26T06:16:04.000Z,3250
2022-08-26T06:17:21.000Z,3055
2022-08-26T06:18:36.000Z,3000
2022-08-26T06:19:52.000Z,3273
2022-08-26T06:21:07.000Z,3623
2022-08-26T06:22:23.000Z,3116
2022-08-26T06:23:39.000Z,3119
2022-08-26T06:24:55.000Z,3757
2022-08-26T06:26:11.000Z,3538
2022-08-26T06:27:27.000Z,3888
2022-08-26T06:28:44.000Z,3277
2022-08-26T06:30:00.000Z,3879
2022-08-26T06:31:16.000Z,3533
2022-08-26T06:32:32.000Z,3181
2022-08-26T06:33:49.000Z,3978
2022-08-26T06:35:05.000Z,4282
2022-08-26T06:36:21.000Z,3466
2022-08-26T06:37:37.000Z,4385
2022-08-26T06:38:53.000Z,3927
2022-08-26T06:40:09.000Z,3924
2022-08-26T06:41:25.000Z,3511
2022-08-26T06:42:41.000Z,3983
2022-08-26T06:43:58.000Z,3861
2022-08-26T06:45:14.000Z,3003
2022-08-26T06:46:30.000Z,4199
2022-08-26T06:47:46.000Z,4651
2022-08-26T06:49:02.000Z,3454
2022-08-26T06:50:19.000Z,4153
2022-08-26T06:51:35.000Z,4675
2022-08-26T06:52:51.000Z,4157
2022-08-26T06:54:07.000Z,4729
2022-08-26T06:55:23.000Z,3624
2022-08-26T06:56:39.000Z,4596
2022-08-26T06:57:55.000Z,4578
2022-08-26T06:59:11.000Z,4674
2022-08-26T07:00:28.000Z,4302
2022-08-26T07:01:44.000Z,4927
2022-08-26T07:03:00.000Z,4596
2022-08-26T07:04:16.000Z,5592
2022-08-26T07:05:33.000Z,4486
2022-08-26T07:06:49.000Z,4213
2022-08-26T07:08:05.000Z,4266
2022-08-26T07:09:21.000Z,5031
2022-08-26T07:10:37.000Z,4853
2022-08-26T07:11:53.000Z,4846
2022-08-26T07:13:09.000Z,4596
2022-08-26T07:14:25.000Z,5557
2022-08-26T07:15:41.000Z,5255
2022-08-26T07:16:58.000Z,6659
2022-08-26T07:18:14.000Z,5731
2022-08-26T07:19:30.000Z,4751
2022-08-26T07:20:46.000Z,5734
2022-08-26T07:22:03.000Z,5436
2022-08-26T07:23:19.000Z,4646
2022-08-26T07:24:35.000Z,6801
2022-08-26T07:25:51.000Z,5543
2022-08-26T07:27:08.000Z,6407
2022-08-26T07:28:23.000Z,5249
2022-08-26T07:29:38.000Z,5568
2022-08-26T07:30:53.000Z,5141
2022-08-26T07:32:09.000Z,5603
2022-08-26T07:33:25.000Z,5767
2022-08-26T07:34:41.000Z,5773
2022-08-26T07:35:57.000Z,5637
2022-08-26T07:37:13.000Z,5997
2022-08-26T07:38:30.000Z,6086
2022-08-26T07:39:46.000Z,5852
2022-08-26T07:41:02.000Z,5551
2022-08-26T07:42:18.000Z,5690
2022-08-26T07:43:35.000Z,5351
2022-08-26T07:44:51.000Z,5330
2022-08-26T07:46:07.000Z,5031
2022-08-26T07:47:23.000Z,5697
2022-08-26T07:48:39.000Z,5013
2022-08-26T07:49:55.000Z,5054
2022-08-26T07:51:11.000Z,4827
2022-08-26T07:52:27.000Z,4783
2022-08-26T07:53:44.000Z,4947
2022-08-26T07:55:00.000Z,5661
2022-08-26T07:56:16.000Z,6478
2022-08-26T07:57:32.000Z,6447
2022-08-26T07:58:48.000Z,6348
2022-08-26T08:00:05.000Z,6243
2022-08-26T08:01:21.000Z,7098
2022-08-26T08:02:37.000Z,7099
2022-08-26T08:03:53.000Z,7301
2022-08-26T08:05:09.000Z,6846
2022-08-26T08:06:25.000Z,7502
2022-08-26T08:07:41.000Z,6962
2022-08-26T08:08:56.000Z,7397
2022-08-26T08:10:12.000Z,7218
2022-08-26T08:11:28.000Z,6552
2022-08-26T08:12:44.000Z,7360
2022-08-26T08:14:00.000Z,6948
2022-08-26T08:15:17.000Z,6219
2022-08-26T08:16:33.000Z,5757
2022-08-26T08:17:49.000Z,5734
2022-08-26T08:19:05.000Z,6040
2022-08-26T08:20:21.000Z,5622
2022-08-26T08:21:37.000Z,6105
2022-08-26T08:22:52.000Z,6036
2022-08-26T08:24:08.000Z,6053
2022-08-26T08:25:24.000Z,5969
2022-08-26T08:26:41.000Z,6205
2022-08-26T08:27:57.000Z,7157
2022-08-26T08:29:13.000Z,7611
2022-08-26T08:30:29.000Z,7310
2022-08-26T08:31:46.000Z,7229
2022-08-26T08:33:02.000Z,7086
2022-08-26T08:34:18.000Z,7072
2022-08-26T08:35:34.000Z,7103
2022-08-26T08:36:50.000Z,7069
2022-08-26T08:38:06.000Z,7536
2022-08-26T08:39:22.000Z,8190
2022-08-26T08:40:38.000Z,7762
2022-08-26T08:41:55.000Z,7892
2022-08-26T08:43:11.000Z,8240
2022-08-26T08:44:27.000Z,9251
2022-08-26T08:45:43.000Z,9710
2022-08-26T08:46:59.000Z,9980
2022-08-26T08:48:15.000Z,9371
2022-08-26T08:49:30.000Z,8183
2022-08-26T08:50:46.000Z,7745
2022-08-26T08:52:01.000Z,8090
2022-08-26T08:53:17.000Z,7562
2022-08-26T08:54:33.000Z,7647
2022-08-26T08:55:49.000Z,7799
2022-08-26T08:57:05.000Z,7368
2022-08-26T08:58:22.000Z,7136
2022-08-26T08:59:38.000Z,7298
2022-08-26T09:00:54.000Z,7723
2022-08-26T09:02:10.000Z,7441
2022-08-26T09:03:27.000Z,7189
2022-08-26T09:04:43.000Z,6616
2022-08-26T09:05:59.000Z,7023
2022-08-26T09:07:15.000Z,7923
2022-08-26T09:08:32.000Z,8069
2022-08-26T09:09:47.000Z,9249
2022-08-26T09:11:03.000Z,8724
2022-08-26T09:12:19.000Z,7181
2022-08-26T09:13:35.000Z,6964
2022-08-26T09:14:52.000Z,7333
2022-08-26T09:16:08.000Z,6710
2022-08-26T09:17:24.000Z,6927
2022-08-26T09:18:40.000Z,7302
2022-08-26T09:19:57.000Z,6692
2022-08-26T09:21:13.000Z,6330
2022-08-26T09:22:29.000Z,5347
2022-08-26T09:23:45.000Z,5983
2022-08-26T09:25:01.000Z,5746
2022-08-26T09:26:16.000Z,5931
2022-08-26T09:27:32.000Z,5926
2022-08-26T09:28:48.000Z,5619
2022-08-26T09:30:05.000Z,6202
2022-08-26T09:31:21.000Z,6232
2022-08-26T09:32:36.000Z,6585
2022-08-26T09:33:51.000Z,7191
2022-08-26T09:35:08.000Z,6773
2022-08-26T09:36:24.000Z,6469
2022-08-26T09:37:40.000Z,7024
2022-08-26T09:38:56.000Z,6954
2022-08-26T09:40:13.000Z,6888
2022-08-26T09:41:29.000Z,7493
2022-08-26T09:42:45.000Z,7164
2022-08-26T09:44:01.000Z,6388
2022-08-26T09:45:17.000Z,6665
2022-08-26T09:46:34.000Z,8220
2022-08-26T09:47:50.000Z,10537
2022-08-26T09:49:06.000Z,9705
2022-08-26T09:50:21.000Z,7904
2022-08-26T09:51:38.000Z,8193
2022-08-26T09:52:54.000Z,8149
2022-08-26T09:54:10.000Z,7884
2022-08-26T09:55:26.000Z,7620
2022-08-26T09:56:43.000Z,8212
2022-08-26T09:57:59.000Z,8795
2022-08-26T09:59:15.000Z,7210
2022-08-26T10:00:31.000Z,7070
2022-08-26T10:01:48.000Z,6748
2022-08-26T10:03:04.000Z,6924
2022-08-26T10:04:20.000Z,7126
2022-08-26T10:05:36.000Z,8166
2022-08-26T10:06:51.000Z,8864
2022-08-26T10:08:08.000Z,9648
2022-08-26T10:09:24.000Z,7956
2022-08-26T10:10:40.000Z,8550
2022-08-26T10:11:56.000Z,9902
2022-08-26T10:13:13.000Z,10230
2022-08-26T10:14:29.000Z,11391
2022-08-26T10:15:45.000Z,11105
2022-08-26T10:17:01.000Z,10882
2022-08-26T10:18:18.000Z,9996
2022-08-26T10:19:34.000Z,9011
2022-08-26T10:20:50.000Z,10516
2022-08-26T10:22:06.000Z,9966
2022-08-26T10:23:22.000Z,8836
2022-08-26T10:24:38.000Z,8378
2022-08-26T10:25:54.000Z,8064
2022-08-26T10:27:10.000Z,10151
2022-08-26T10:28:26.000Z,12020
2022-08-26T10:29:43.000Z,13290
2022-08-26T10:30:59.000Z,13177
2022-08-26T10:32:15.000Z,10869
2022-08-26T10:33:30.000Z,9014
2022-08-26T10:34:46.000Z,9174
2022-08-26T10:36:02.000Z,8967
2022-08-26T10:37:18.000Z,8111
2022-08-26T10:38:33.000Z,8279
2022-08-26T10:39:49.000Z,9949
2022-08-26T10:41:05.000Z,12486
2022-08-26T10:42:21.000Z,12472
2022-08-26T10:43:37.000Z,12000
2022-08-26T10:44:54.000Z,10306
2022-08-26T10:46:10.000Z,9006
2022-08-26T10:47:26.000Z,9120
2022-08-26T10:48:42.000Z,9576
2022-08-26T10:49:59.000Z,8887
2022-08-26T10:51:15.000Z,10708
2022-08-26T10:52:31.000Z,11432
2022-08-26T10:53:47.000Z,13165
2022-08-26T10:55:03.000Z,14059
2022-08-26T10:56:19.000Z,14275
2022-08-26T10:57:35.000Z,14060
2022-08-26T10:58:51.000Z,12045
2022-08-26T11:00:07.000Z,10105
2022-08-26T11:01:24.000Z,9863
2022-08-26T11:02:40.000Z,10160
2022-08-26T11:03:56.000Z,10233
2022-08-26T11:05:11.000Z,10861
2022-08-26T11:06:27.000Z,12157
2022-08-26T11:07:43.000Z,12812
2022-08-26T11:08:59.000Z,12787
2022-08-26T11:10:14.000Z,13856
2022-08-26T11:11:30.000Z,12426
2022-08-26T11:12:46.000Z,11940
2022-08-26T11:14:02.000Z,9864
2022-08-26T11:15:18.000Z,9091
2022-08-26T11:16:35.000Z,8543
2022-08-26T11:17:51.000Z,9217
2022-08-26T11:19:07.000Z,10803
2022-08-26T11:20:23.000Z,11379
2022-08-26T11:21:39.000Z,11302
2022-08-26T11:22:56.000Z,11924
2022-08-26T11:24:12.000Z,11977
2022-08-26T11:25:28.000Z,12534
2022-08-26T11:26:44.000Z,13355
2022-08-26T11:28:00.000Z,14250
2022-08-26T11:29:16.000Z,14169
2022-08-26T11:30:32.000Z,12129
2022-08-26T11:31:48.000Z,10732
2022-08-26T11:33:05.000Z,11403
2022-08-26T11:34:21.000Z,11846
2022-08-26T11:35:37.000Z,11893
2022-08-26T11:36:53.000Z,12739
2022-08-26T11:38:10.000Z,13071
2022-08-26T11:39:26.000Z,14161
2022-08-26T11:40:42.000Z,15480
2022-08-26T11:41:58.000Z,14163
2022-08-26T11:43:14.000Z,14817
2022-08-26T11:44:30.000Z,15562
2022-08-26T11:45:46.000Z,16997
2022-08-26T11:47:02.000Z,16708
2022-08-26T11:48:18.000Z,16524
2022-08-26T11:49:35.000Z,14365
2022-08-26T11:50:51.000Z,14639
2022-08-26T11:52:07.000Z,14832
2022-08-26T11:53:23.000Z,13772
2022-08-26T11:54:40.000Z,13806
2022-08-26T11:55:56.000Z,15065
2022-08-26T11:57:12.000Z,18844
2022-08-26T11:58:28.000Z,17427
2022-08-26T11:59:44.000Z,16843
2022-08-26T12:01:00.000Z,16977
2022-08-26T12:02:16.000Z,14234
2022-08-26T12:03:32.000Z,13689
2022-08-26T12:04:48.000Z,13436
2022-08-26T12:06:05.000Z,13812
2022-08-26T12:07:21.000Z,12355
2022-08-26T12:08:37.000Z,11380
2022-08-26T12:09:53.000Z,12001
2022-08-26T12:11:10.000Z,12847
2022-08-26T12:12:26.000Z,15787
2022-08-26T12:13:42.000Z,14713
2022-08-26T12:14:58.000Z,14138
2022-08-26T12:16:15.000Z,14032
2022-08-26T12:17:30.000Z,13589
2022-08-26T12:18:46.000Z,13715
2022-08-26T12:20:02.000Z,12955
2022-08-26T12:21:18.997Z,13893
2022-08-26T12:22:35.000Z,14596
2022-08-26T12:23:51.000Z,14575
2022-08-26T12:25:07.000Z,15159
2022-08-26T12:26:23.000Z,14477
2022-08-26T12:27:40.000Z,14449
2022-08-26T12:28:56.000Z,15484
2022-08-26T12:30:12.000Z,15022
2022-08-26T12:31:28.000Z,14902
2022-08-26T12:32:45.000Z,15054
2022-08-26T12:34:00.000Z,16182
2022-08-26T12:35:16.000Z,15777
2022-08-26T12:36:32.000Z,16784
2022-08-26T12:37:49.000Z,16874
2022-08-26T12:39:05.000Z,15818
2022-08-26T12:40:21.000Z,17962
2022-08-26T12:41:37.000Z,20341
2022-08-26T12:42:53.000Z,18457
2022-08-26T12:44:10.000Z,18291
2022-08-26T12:45:26.000Z,16410
2022-08-26T12:46:42.000Z,14486
2022-08-26T12:47:58.000Z,14329
2022-08-26T12:49:15.000Z,14799
2022-08-26T12:50:30.000Z,15294
2022-08-26T12:51:45.000Z,16009
2022-08-26T12:53:01.000Z,18367
2022-08-26T12:54:18.000Z,16972
2022-08-26T12:55:34.000Z,15671
2022-08-26T12:56:50.000Z,15889
2022-08-26T12:58:06.000Z,14004
2022-08-26T12:59:23.000Z,13877
2022-08-26T13:00:39.000Z,14936
2022-08-26T13:01:55.000Z,12976
2022-08-26T13:03:11.000Z,14356
2022-08-26T13:04:27.000Z,17485
2022-08-26T13:05:44.000Z,17599
2022-08-26T13:07:00.000Z,19509
2022-08-26T13:08:15.000Z,19708
2022-08-26T13:09:31.000Z,17405
2022-08-26T13:10:48.000Z,15375
2022-08-26T13:12:04.000Z,12991
2022-08-26T13:13:20.000Z,11271
2022-08-26T13:14:36.000Z,10949
2022-08-26T13:15:53.000Z,11809
2022-08-26T13:17:09.000Z,12717
2022-08-26T13:18:25.000Z,13450
2022-08-26T13:19:41.000Z,15136
2022-08-26T13:20:58.000Z,15880
2022-08-26T13:22:14.000Z,15626
2022-08-26T13:23:30.000Z,13460
2022-08-26T13:24:45.000Z,11908
2022-08-26T13:26:02.000Z,11453
2022-08-26T13:27:18.000Z,11455
2022-08-26T13:28:34.000Z,11582
2022-08-26T13:29:50.000Z,12679
2022-08-26T13:31:06.000Z,11760
2022-08-26T13:32:23.000Z,12164
2022-08-26T13:33:39.000Z,13711
2022-08-26T13:34:55.000Z,14838
2022-08-26T13:36:11.000Z,12001
2022-08-26T13:37:28.000Z,14631
2022-08-26T13:38:44.000Z,17123
2022-08-26T13:40:00.000Z,15251
2022-08-26T13:41:16.000Z,26547
2022-08-26T13:42:32.000Z,17654
2022-08-26T13:43:48.000Z,16330
2022-08-26T13:45:04.000Z,15068
2022-08-26T13:46:20.000Z,16941
2022-08-26T13:47:36.000Z,16312
2022-08-26T13:48:53.000Z,17578
2022-08-26T13:50:09.000Z,16050
2022-08-26T13:51:25.000Z,16473
2022-08-26T13:52:41.000Z,18986
2022-08-26T13:53:58.000Z,15876
2022-08-26T13:55:14.000Z,21252
2022-08-26T13:56:30.000Z,23998
2022-08-26T13:57:46.000Z,14853
2022-08-26T13:59:02.000Z,19859
2022-08-26T14:00:18.000Z,14736
2022-08-26T14:01:34.000Z,13378
2022-08-26T14:02:50.000Z,11950
2022-08-26T14:04:07.000Z,10683
2022-08-26T14:05:23.000Z,12924
2022-08-26T14:06:39.000Z,15163
2022-08-26T14:07:55.000Z,13816
2022-08-26T14:09:11.000Z,11672
2022-08-26T14:10:28.000Z,11963
2022-08-26T14:11:44.000Z,10429
2022-08-26T14:13:00.000Z,10625
2022-08-26T14:14:16.000Z,11401
2022-08-26T14:15:32.000Z,13506
2022-08-26T14:16:48.000Z,11452
2022-08-26T14:18:04.000Z,12210
2022-08-26T14:19:20.000Z,11393
2022-08-26T14:20:37.000Z,11694
2022-08-26T14:21:52.000Z,10088
2022-08-26T14:23:07.000Z,10251
2022-08-26T14:24:23.000Z,11210
2022-08-26T14:25:40.000Z,11535
2022-08-26T14:26:56.000Z,9604
2022-08-26T14:28:12.000Z,8686
2022-08-26T14:29:28.000Z,9161
2022-08-26T14:30:44.000Z,10207
2022-08-26T14:32:00.000Z,10012
2022-08-26T14:33:15.000Z,9189
2022-08-26T14:34:31.000Z,9376
2022-08-26T14:35:48.000Z,10226
2022-08-26T14:37:04.000Z,10714
2022-08-26T14:38:20.000Z,10064
2022-08-26T14:39:36.000Z,10022
2022-08-26T14:40:52.000Z,10065
2022-08-26T14:42:09.000Z,10057
2022-08-26T14:43:25.000Z,10126
2022-08-26T14:44:41.000Z,9683
2022-08-26T14:45:57.000Z,9583
2022-08-26T14:47:14.000Z,10634
2022-08-26T14:48:30.000Z,11237
2022-08-26T14:49:45.000Z,11245
2022-08-26T14:51:01.000Z,12869
2022-08-26T14:52:18.000Z,11843
2022-08-26T14:53:34.000Z,11082
2022-08-26T14:54:50.000Z,9826
2022-08-26T14:56:06.000Z,8078
2022-08-26T14:57:22.000Z,7935
2022-08-26T14:58:39.000Z,7792
2022-08-26T14:59:55.000Z,8807
2022-08-26T15:01:11.000Z,9749
2022-08-26T15:02:27.000Z,10586
2022-08-26T15:03:44.000Z,10749
2022-08-26T15:05:00.000Z,10901
2022-08-26T15:06:15.000Z,10902
2022-08-26T15:07:31.000Z,9220
2022-08-26T15:08:48.000Z,9009
2022-08-26T15:10:04.000Z,9681
2022-08-26T15:11:20.000Z,10271
2022-08-26T15:12:36.000Z,11094
2022-08-26T15:13:53.000Z,11730
2022-08-26T15:15:09.000Z,12145
2022-08-26T15:16:25.000Z,10800
2022-08-26T15:17:41.000Z,10121
2022-08-26T15:18:57.000Z,10084
2022-08-26T15:20:14.000Z,11527
2022-08-26T15:21:30.000Z,12357
2022-08-26T15:22:45.000Z,12987
2022-08-26T15:24:01.000Z,11483
2022-08-26T15:25:18.000Z,10173
2022-08-26T15:26:34.000Z,8789
2022-08-26T15:27:50.000Z,8898
2022-08-26T15:29:06.000Z,9665
2022-08-26T15:30:23.000Z,9922
2022-08-26T15:31:39.000Z,8960
2022-08-26T15:32:55.000Z,10316
2022-08-26T15:34:11.000Z,10965
2022-08-26T15:35:28.000Z,10843
2022-08-26T15:36:44.000Z,10892
2022-08-26T15:38:00.000Z,11360
2022-08-26T15:39:15.000Z,12131
2022-08-26T15:40:31.000Z,11144
2022-08-26T15:41:48.000Z,9616
2022-08-26T15:43:04.000Z,9540
2022-08-26T15:44:20.000Z,9641
2022-08-26T15:45:36.000Z,9739
2022-08-26T15:46:53.000Z,8888
2022-08-26T15:48:09.000Z,7433
2022-08-26T15:49:25.000Z,8864
2022-08-26T15:50:41.000Z,9512
2022-08-26T15:51:58.000Z,9212
2022-08-26T15:53:14.000Z,8010
2022-08-26T15:54:30.000Z,7586
2022-08-26T15:55:45.000Z,7776
2022-08-26T15:57:02.000Z,6622
2022-08-26T15:58:18.000Z,5761
2022-08-26T15:59:34.000Z,5632
2022-08-26T16:00:50.000Z,4978
2022-08-26T16:02:06.000Z,4436
2022-08-26T16:03:23.000Z,4351
2022-08-26T16:04:39.000Z,4391
2022-08-26T16:05:55.000Z,4680
2022-08-26T16:07:11.000Z,5309
2022-08-26T16:08:28.000Z,4697
2022-08-26T16:09:44.000Z,4620
2022-08-26T16:11:00.000Z,4484
2022-08-26T16:12:15.000Z,3940
2022-08-26T16:13:32.000Z,4394
2022-08-26T16:14:48.000Z,3954
2022-08-26T16:16:04.000Z,3966
2022-08-26T16:17:20.000Z,4523
2022-08-26T16:18:37.000Z,4167
2022-08-26T16:19:53.000Z,3958
2022-08-26T16:21:09.000Z,3316
2022-08-26T16:22:25.000Z,3051
2022-08-26T16:23:41.000Z,2686
2022-08-26T16:24:58.000Z,3079
2022-08-26T16:26:14.000Z,3448
2022-08-26T16:27:30.000Z,2912
2022-08-26T16:28:45.000Z,3100
2022-08-26T16:30:02.000Z,3493
2022-08-26T16:31:18.000Z,3526
2022-08-26T16:32:34.000Z,3253
2022-08-26T16:33:50.000Z,3257
2022-08-26T16:35:07.000Z,3135
2022-08-26T16:36:23.000Z,3121
2022-08-26T16:37:39.000Z,3227
2022-08-26T16:38:55.000Z,3082
2022-08-26T16:40:12.000Z,2900
2022-08-26T16:41:28.000Z,2594
2022-08-26T16:42:44.000Z,2435
2022-08-26T16:44:00.000Z,2325
2022-08-26T16:45:15.000Z,2039
2022-08-26T16:46:32.000Z,1714
2022-08-26T16:47:48.000Z,1383
2022-08-26T16:49:04.000Z,1306
2022-08-26T16:50:20.000Z,1449
2022-08-26T16:51:37.000Z,1338
2022-08-26T16:52:53.000Z,1363
2022-08-26T16:54:09.000Z,1390